Time;durP1;ratioP1;P1;durP2;ratioP2;P2;SDS_P1;SDS_P2;PMS_P1;PMS_P2;Temp;Humidity;BMP_temperature;BMP_pressure;BME280_temperature;BME280_humidity;BME280_pressure;Samples;Min_cycle;Max_cycle;Signal;HPM_P1;HPM_P2
2023/09/22 00:01:46;;;;;;;1.52;1.00;;;13.20;99.90;;;;;;5043356;28;20120;-65
2023/09/22 00:04:12;;;;;;;2.85;1.70;;;13.20;99.90;;;;;;5052846;28;20435;-66
2023/09/22 00:06:38;;;;;;;2.15;1.50;;;13.20;99.90;;;;;;5041444;28;20032;-62
2023/09/22 00:09:09;;;;;;;1.63;1.00;;;13.20;99.90;;;;;;5048757;28;20470;-63
2023/09/22 00:11:36;;;;;;;1.92;1.55;;;13.20;99.90;;;;;;5037731;28;21320;-64
2023/09/22 00:14:02;;;;;;;2.10;1.40;;;13.10;99.90;;;;;;5048531;28;20032;-64
2023/09/22 00:16:28;;;;;;;3.60;1.40;;;13.10;99.90;;;;;;5047212;28;20029;-66
2023/09/22 00:18:53;;;;;;;3.75;1.50;;;13.10;99.90;;;;;;5054984;28;20385;-64
2023/09/22 00:21:19;;;;;;;2.35;1.27;;;13.00;99.90;;;;;;5045363;28;20604;-65
2023/09/22 00:23:44;;;;;;;2.78;1.38;;;13.00;99.90;;;;;;5045644;28;20044;-66
2023/09/22 00:26:10;;;;;;;4.72;1.58;;;13.00;99.90;;;;;;5060529;28;20037;-65
2023/09/22 00:28:36;;;;;;;3.50;1.50;;;13.00;99.90;;;;;;5047663;28;20029;-65
2023/09/22 00:31:01;;;;;;;2.45;1.15;;;13.00;99.90;;;;;;5051288;28;20024;-65
2023/09/22 00:33:27;;;;;;;2.33;1.48;;;13.00;99.90;;;;;;5048915;28;20433;-64
2023/09/22 00:35:52;;;;;;;3.08;1.30;;;12.90;99.90;;;;;;5045459;28;20848;-66
2023/09/22 00:38:18;;;;;;;5.25;1.42;;;12.90;99.90;;;;;;5048917;28;20021;-66
2023/09/22 00:40:43;;;;;;;7.20;1.48;;;12.80;99.90;;;;;;5046166;28;20032;-66
2023/09/22 00:43:11;;;;;;;2.13;1.50;;;12.70;99.90;;;;;;5050232;28;20517;-64
2023/09/22 00:45:46;;;;;;;2.60;1.65;;;12.70;99.90;;;;;;5050981;28;20032;-61
2023/09/22 00:48:21;;;;;;;2.38;1.67;;;12.60;99.90;;;;;;5048978;28;20025;-64
2023/09/22 00:50:48;;;;;;;5.13;1.35;;;12.50;99.90;;;;;;5045386;28;20536;-65
2023/09/22 00:53:14;;;;;;;2.30;1.42;;;12.50;99.90;;;;;;5043515;28;20029;-63
2023/09/22 00:55:40;;;;;;;2.20;1.55;;;12.50;99.90;;;;;;5062299;28;20037;-63
2023/09/22 00:58:06;;;;;;;2.55;1.35;;;12.40;99.90;;;;;;5049287;28;20036;-64
2023/09/22 01:00:33;;;;;;;4.50;1.45;;;12.30;99.90;;;;;;5050570;28;20021;-63
2023/09/22 01:02:59;;;;;;;2.85;1.65;;;12.30;99.90;;;;;;5035782;28;20045;-65
2023/09/22 01:05:25;;;;;;;2.47;1.40;;;12.30;99.90;;;;;;5048168;28;20040;-65
2023/09/22 01:07:51;;;;;;;5.18;1.85;;;12.20;99.90;;;;;;5047798;28;20494;-65
2023/09/22 01:10:17;;;;;;;9.07;2.00;;;12.20;99.90;;;;;;5048278;28;20040;-64
2023/09/22 01:12:42;;;;;;;7.35;1.70;;;12.20;99.90;;;;;;5050277;28;20275;-64
2023/09/22 01:15:09;;;;;;;3.20;1.45;;;12.10;99.90;;;;;;5044851;28;20555;-65
2023/09/22 01:17:35;;;;;;;2.35;1.60;;;12.20;99.90;;;;;;5048271;28;20025;-64
2023/09/22 01:20:03;;;;;;;5.10;1.50;;;12.10;99.90;;;;;;5049558;28;20391;-64
2023/09/22 01:22:29;;;;;;;4.75;1.70;;;12.00;99.90;;;;;;5045011;28;20498;-63
2023/09/22 01:24:56;;;;;;;4.15;1.45;;;12.00;99.90;;;;;;5049674;28;20057;-64
2023/09/22 01:27:21;;;;;;;2.72;1.52;;;12.00;99.90;;;;;;5051277;28;20486;-64
2023/09/22 01:29:47;;;;;;;2.00;1.27;;;12.00;99.90;;;;;;5049495;28;20060;-65
2023/09/22 01:32:13;;;;;;;8.65;1.50;;;11.90;99.90;;;;;;5049213;28;20112;-64
2023/09/22 01:34:38;;;;;;;12.00;1.88;;;12.00;99.90;;;;;;5049952;28;20482;-65
2023/09/22 01:37:07;;;;;;;4.32;1.65;;;11.90;99.90;;;;;;5048520;28;20017;-68
2023/09/22 01:39:34;;;;;;;4.55;1.77;;;11.90;99.90;;;;;;5050911;28;20031;-64
2023/09/22 01:42:00;;;;;;;3.83;1.70;;;11.90;99.90;;;;;;5050431;28;20013;-63
2023/09/22 01:44:25;;;;;;;5.50;1.67;;;11.80;99.90;;;;;;5050436;28;20107;-64
2023/09/22 01:46:51;;;;;;;3.25;1.70;;;11.80;99.90;;;;;;5049366;28;20060;-62
2023/09/22 01:49:17;;;;;;;3.17;1.88;;;11.80;99.90;;;;;;5048419;28;20124;-65
2023/09/22 01:51:42;;;;;;;8.23;1.88;;;11.70;99.90;;;;;;5050594;28;20029;-64
2023/09/22 01:54:08;;;;;;;2.58;1.63;;;11.60;99.90;;;;;;5050301;28;20079;-65
2023/09/22 01:56:34;;;;;;;9.05;2.03;;;11.60;99.90;;;;;;5050004;28;20074;-65
2023/09/22 01:59:00;;;;;;;6.95;2.00;;;11.60;99.90;;;;;;5049950;28;20033;-64
2023/09/22 02:01:25;;;;;;;3.00;1.67;;;11.50;99.90;;;;;;5045929;28;20032;-67
2023/09/22 02:03:54;;;;;;;5.35;1.70;;;11.50;99.90;;;;;;5047986;28;20493;-62
2023/09/22 02:06:19;;;;;;;2.92;1.52;;;11.50;99.90;;;;;;5047148;28;20059;-66
2023/09/22 02:08:45;;;;;;;5.85;1.73;;;11.50;99.90;;;;;;5044318;28;20491;-63
2023/09/22 02:11:11;;;;;;;7.97;1.95;;;11.40;99.90;;;;;;5046888;28;20037;-65
2023/09/22 02:13:38;;;;;;;3.70;1.85;;;11.40;99.90;;;;;;5049827;28;20528;-60
2023/09/22 02:16:04;;;;;;;5.40;1.63;;;11.40;99.90;;;;;;5048042;28;20033;-64
2023/09/22 02:18:30;;;;;;;4.07;1.95;;;11.40;99.90;;;;;;5045077;28;20064;-64
2023/09/22 02:20:56;;;;;;;5.95;1.70;;;11.40;99.90;;;;;;5046521;28;20055;-64
2023/09/22 02:23:24;;;;;;;2.42;1.27;;;11.40;99.90;;;;;;5047924;28;20066;-65
2023/09/22 02:25:49;;;;;;;3.28;2.40;;;11.30;99.90;;;;;;5046214;28;20063;-64
2023/09/22 02:28:15;;;;;;;5.68;1.70;;;11.30;99.90;;;;;;5045966;28;20029;-64
2023/09/22 02:30:41;;;;;;;2.10;1.40;;;11.20;99.90;;;;;;5046611;28;20021;-64
2023/09/22 02:33:07;;;;;;;2.97;1.38;;;11.20;99.90;;;;;;5048871;28;20028;-65
2023/09/22 02:35:33;;;;;;;2.10;1.90;;;11.10;99.90;;;;;;5063625;28;20036;-65
2023/09/22 02:37:59;;;;;;;3.50;1.65;;;11.10;99.90;;;;;;5055945;28;20021;-65
2023/09/22 02:40:24;;;;;;;4.22;1.63;;;11.00;99.90;;;;;;5055497;28;20040;-65
2023/09/22 02:42:50;;;;;;;3.50;1.63;;;11.00;99.90;;;;;;5056888;28;20017;-65
2023/09/22 02:45:15;;;;;;;5.47;2.10;;;10.90;99.90;;;;;;5063769;28;20028;-65
2023/09/22 02:47:41;;;;;;;2.63;1.85;;;10.90;99.90;;;;;;5060582;28;20032;-66
2023/09/22 02:50:10;;;;;;;2.97;1.90;;;10.90;99.90;;;;;;5057794;28;20079;-65
2023/09/22 02:52:36;;;;;;;3.00;1.98;;;10.90;99.90;;;;;;5057935;28;20017;-66
2023/09/22 02:55:03;;;;;;;3.38;1.85;;;10.90;99.90;;;;;;5047806;28;20029;-64
2023/09/22 02:57:29;;;;;;;2.13;1.60;;;10.90;99.90;;;;;;5050299;28;20070;-64
2023/09/22 02:59:54;;;;;;;2.17;1.58;;;10.80;99.90;;;;;;5060004;28;20417;-65
2023/09/22 03:02:21;;;;;;;4.82;1.88;;;10.80;99.90;;;;;;5055814;28;20478;-64
2023/09/22 03:04:49;;;;;;;5.28;2.13;;;10.80;99.90;;;;;;5054314;28;20036;-64
2023/09/22 03:07:15;;;;;;;3.20;1.60;;;10.70;99.90;;;;;;5049090;28;20036;-64
2023/09/22 03:09:40;;;;;;;4.35;1.95;;;10.70;99.90;;;;;;5054854;28;20035;-62
2023/09/22 03:12:06;;;;;;;8.93;2.50;;;10.70;99.90;;;;;;5047013;28;20542;-63
2023/09/22 03:14:32;;;;;;;2.72;2.28;;;10.70;99.90;;;;;;5057633;28;20528;-64
2023/09/22 03:16:59;;;;;;;3.33;1.95;;;10.70;99.90;;;;;;5056477;28;20030;-62
2023/09/22 03:19:25;;;;;;;3.53;2.13;;;10.70;99.90;;;;;;5052512;28;20086;-65
2023/09/22 03:21:50;;;;;;;4.35;1.80;;;10.70;99.90;;;;;;5040682;28;20021;-64
2023/09/22 03:24:16;;;;;;;10.25;2.15;;;10.70;99.90;;;;;;5048905;28;20028;-64
2023/09/22 03:26:41;;;;;;;3.50;2.03;;;10.60;99.90;;;;;;5053010;28;20031;-65
2023/09/22 03:29:07;;;;;;;9.50;2.20;;;10.60;99.90;;;;;;5052930;28;20021;-65
2023/09/22 03:31:33;;;;;;;4.18;1.98;;;10.60;99.90;;;;;;5048608;28;20131;-62
2023/09/22 03:33:58;;;;;;;2.80;1.77;;;10.60;99.90;;;;;;5048956;28;20025;-62
2023/09/22 03:36:24;;;;;;;3.70;2.05;;;10.70;99.90;;;;;;5051781;28;20040;-59
2023/09/22 03:38:51;;;;;;;7.82;2.28;;;10.60;99.90;;;;;;5056887;28;20017;-64
2023/09/22 03:41:18;;;;;;;2.65;1.98;;;10.70;99.90;;;;;;5060728;28;20079;-64
2023/09/22 03:43:44;;;;;;;2.75;1.48;;;10.60;99.90;;;;;;5059803;28;20021;-64
2023/09/22 03:46:10;;;;;;;3.15;1.70;;;10.60;99.90;;;;;;5053941;28;20548;-64
2023/09/22 03:48:37;;;;;;;6.75;1.63;;;10.50;99.90;;;;;;5057087;28;20032;-63
2023/09/22 03:51:03;;;;;;;5.00;2.30;;;10.50;99.90;;;;;;5050221;28;20017;-65
2023/09/22 03:53:28;;;;;;;5.82;2.05;;;10.60;99.90;;;;;;5062398;28;20505;-64
2023/09/22 03:55:54;;;;;;;6.40;1.77;;;10.60;99.90;;;;;;5060099;28;20037;-66
2023/09/22 03:58:20;;;;;;;7.85;2.00;;;10.70;99.90;;;;;;5061627;28;20025;-64
2023/09/22 04:00:46;;;;;;;4.03;1.63;;;10.80;99.90;;;;;;5061452;28;20069;-64
2023/09/22 04:03:13;;;;;;;8.35;2.22;;;10.90;99.90;;;;;;5052429;28;20017;-64
2023/09/22 04:05:39;;;;;;;11.40;2.72;;;11.00;99.90;;;;;;5048765;28;20021;-63
2023/09/22 04:08:05;;;;;;;3.22;1.98;;;11.10;99.90;;;;;;5051487;28;20025;-63
2023/09/22 04:10:34;;;;;;;3.95;2.22;;;11.10;99.90;;;;;;5051030;28;20518;-66
2023/09/22 04:12:59;;;;;;;3.03;2.20;;;11.20;99.90;;;;;;5062995;28;20122;-65
2023/09/22 04:15:25;;;;;;;7.90;1.83;;;11.30;99.90;;;;;;5069424;28;20116;-64
2023/09/22 04:17:51;;;;;;;3.97;1.73;;;11.30;99.90;;;;;;5057071;28;20029;-64
2023/09/22 04:20:27;;;;;;;14.13;2.50;;;11.40;99.90;;;;;;5052982;28;20029;-66
2023/09/22 04:22:53;;;;;;;5.18;2.00;;;11.40;99.90;;;;;;5051279;28;20112;-65
2023/09/22 04:25:19;;;;;;;4.88;1.98;;;11.50;99.90;;;;;;5054696;28;20481;-64
2023/09/22 04:27:53;;;;;;;7.38;1.80;;;11.50;99.90;;;;;;5057064;28;20040;-64
2023/09/22 04:30:20;;;;;;;7.03;2.50;;;11.50;99.90;;;;;;5059613;28;20478;-64
2023/09/22 04:32:47;;;;;;;4.43;1.95;;;11.60;99.90;;;;;;5063967;28;20100;-66
2023/09/22 04:35:13;;;;;;;4.53;1.70;;;11.60;99.90;;;;;;5067544;28;20031;-62
2023/09/22 04:37:40;;;;;;;8.35;1.90;;;11.60;99.90;;;;;;5048227;28;20022;-60
2023/09/22 04:40:11;;;;;;;3.45;1.77;;;11.60;99.90;;;;;;5048562;28;20017;-61
2023/09/22 04:42:37;;;;;;;4.55;1.70;;;11.70;99.90;;;;;;5054125;28;20017;-65
2023/09/22 04:45:03;;;;;;;8.43;2.10;;;11.60;99.90;;;;;;5057989;28;20032;-65
2023/09/22 04:47:29;;;;;;;4.60;1.27;;;11.60;99.90;;;;;;5062316;28;20021;-65
2023/09/22 04:49:55;;;;;;;4.40;1.77;;;11.60;99.90;;;;;;5059457;28;20028;-65
2023/09/22 04:52:20;;;;;;;2.25;1.55;;;11.70;99.90;;;;;;5051746;28;20108;-64
2023/09/22 04:54:46;;;;;;;6.80;1.83;;;11.70;99.90;;;;;;5043238;28;20029;-65
2023/09/22 04:57:11;;;;;;;5.28;2.28;;;11.70;99.90;;;;;;5049037;28;20375;-65
2023/09/22 04:59:37;;;;;;;3.88;1.42;;;11.70;99.90;;;;;;5048641;28;20048;-66
2023/09/22 05:02:05;;;;;;;13.55;2.17;;;11.70;99.90;;;;;;5050226;28;20041;-65
2023/09/22 05:04:30;;;;;;;3.58;1.75;;;11.70;99.90;;;;;;5049414;28;20521;-64
2023/09/22 05:06:56;;;;;;;5.13;1.45;;;11.70;99.90;;;;;;5048282;28;20033;-64
2023/09/22 05:09:22;;;;;;;8.85;1.60;;;11.70;99.90;;;;;;5045990;28;20031;-64
2023/09/22 05:11:48;;;;;;;6.10;1.52;;;11.70;99.90;;;;;;5049339;28;20075;-65
2023/09/22 05:14:14;;;;;;;8.23;1.52;;;11.70;99.90;;;;;;5056662;28;20029;-64
2023/09/22 05:16:42;;;;;;;3.97;1.50;;;11.70;99.90;;;;;;5050421;28;20107;-64
2023/09/22 05:19:07;;;;;;;3.70;1.20;;;11.70;99.90;;;;;;5050295;28;20017;-65
2023/09/22 05:21:33;;;;;;;3.17;1.80;;;11.70;99.90;;;;;;5048991;28;20044;-61
2023/09/22 05:23:59;;;;;;;4.68;1.40;;;11.60;99.90;;;;;;5049787;28;20039;-64
2023/09/22 05:26:25;;;;;;;2.15;1.40;;;11.60;99.90;;;;;;5047676;28;20432;-65
2023/09/22 05:28:51;;;;;;;4.15;1.48;;;11.60;99.90;;;;;;5049247;28;20021;-65
2023/09/22 05:31:16;;;;;;;4.38;1.52;;;11.50;99.90;;;;;;5050303;28;20025;-66
2023/09/22 05:33:42;;;;;;;3.33;1.27;;;11.50;99.90;;;;;;5050253;28;20626;-62
2023/09/22 05:36:08;;;;;;;4.40;1.30;;;11.40;99.90;;;;;;5046673;28;20505;-65
2023/09/22 05:38:35;;;;;;;1.92;1.10;;;11.40;99.90;;;;;;5049080;28;20032;-64
2023/09/22 05:41:01;;;;;;;3.60;1.70;;;11.30;99.90;;;;;;5050129;28;20017;-65
2023/09/22 05:43:27;;;;;;;6.90;1.55;;;11.30;99.90;;;;;;5049206;28;20025;-64
2023/09/22 05:45:54;;;;;;;2.38;1.55;;;11.30;99.90;;;;;;5050020;28;20482;-65
2023/09/22 05:48:21;;;;;;;4.10;1.73;;;11.30;99.90;;;;;;5047187;28;20059;-64
2023/09/22 05:50:55;;;;;;;1.83;1.45;;;11.30;99.90;;;;;;5044671;28;20025;-64
2023/09/22 05:53:21;;;;;;;4.60;1.65;;;11.40;99.90;;;;;;5049605;28;20037;-65
2023/09/22 05:55:46;;;;;;;3.28;1.63;;;11.40;99.90;;;;;;5047414;28;20527;-64
2023/09/22 05:58:13;;;;;;;3.35;1.40;;;11.50;99.90;;;;;;5046774;28;20552;-63
2023/09/22 06:00:39;;;;;;;2.88;1.42;;;11.50;99.90;;;;;;5049961;28;20058;-64
2023/09/22 06:03:05;;;;;;;3.60;1.67;;;11.60;99.90;;;;;;5050852;28;20013;-66
2023/09/22 06:05:31;;;;;;;5.82;1.23;;;11.70;99.90;;;;;;5046740;28;20029;-64
2023/09/22 06:07:59;;;;;;;5.35;1.30;;;11.80;99.90;;;;;;5051540;28;20029;-64
2023/09/22 06:10:25;;;;;;;2.83;1.33;;;11.90;99.90;;;;;;5053084;28;20051;-65
2023/09/22 06:12:50;;;;;;;5.10;2.45;;;11.90;99.90;;;;;;5023744;28;20068;-66
2023/09/22 06:15:16;;;;;;;5.05;1.33;;;11.90;99.90;;;;;;5041038;28;20033;-65
2023/09/22 06:17:42;;;;;;;3.22;1.25;;;11.90;99.90;;;;;;5042767;28;20052;-63
2023/09/22 06:20:13;;;;;;;3.50;1.63;;;12.00;99.90;;;;;;5044003;28;20028;-65
2023/09/22 06:22:40;;;;;;;10.57;1.75;;;12.10;99.90;;;;;;5043099;28;20025;-63
2023/09/22 06:25:08;;;;;;;5.82;2.22;;;12.20;99.90;;;;;;5044434;28;20036;-64
2023/09/22 06:27:33;;;;;;;2.80;1.55;;;12.30;99.90;;;;;;5045731;28;20056;-65
2023/09/22 06:30:00;;;;;;;1.77;1.00;;;12.40;99.90;;;;;;5046759;28;20079;-66
2023/09/22 06:32:26;;;;;;;1.70;1.38;;;12.40;99.90;;;;;;5044617;28;20017;-66
2023/09/22 06:34:53;;;;;;;5.65;1.42;;;12.40;99.90;;;;;;5045908;28;20053;-65
2023/09/22 06:37:19;;;;;;;2.33;1.30;;;12.40;99.90;;;;;;5043127;28;20448;-66
2023/09/22 06:39:46;;;;;;;3.35;1.20;;;12.50;99.90;;;;;;5045639;28;20032;-64
2023/09/22 06:42:11;;;;;;;4.28;1.30;;;12.50;99.90;;;;;;5045636;28;20021;-64
2023/09/22 06:44:37;;;;;;;3.75;1.33;;;12.60;99.90;;;;;;5044436;28;21044;-64
2023/09/22 06:47:04;;;;;;;2.75;1.30;;;12.60;99.90;;;;;;5045556;28;20029;-64
2023/09/22 06:49:32;;;;;;;3.55;1.45;;;12.70;99.90;;;;;;5041755;28;20663;-63
2023/09/22 06:51:58;;;;;;;2.10;1.20;;;12.80;99.90;;;;;;5045604;28;20041;-64
2023/09/22 06:54:23;;;;;;;3.53;1.23;;;12.90;99.90;;;;;;5044871;28;20390;-65
2023/09/22 06:56:49;;;;;;;1.70;1.00;;;12.90;99.90;;;;;;5050420;28;20029;-67
2023/09/22 06:59:15;;;;;;;2.40;1.10;;;13.10;99.90;;;;;;5044968;28;20036;-65
2023/09/22 07:01:40;;;;;;;2.67;1.38;;;13.40;99.90;;;;;;5042874;28;20025;-65
2023/09/22 07:04:09;;;;;;;2.65;0.77;;;13.60;99.90;;;;;;5043694;28;20056;-63
2023/09/22 07:06:36;;;;;;;1.70;0.98;;;13.90;99.90;;;;;;5041547;28;20463;-62
2023/09/22 07:09:02;;;;;;;1.05;0.93;;;13.90;99.90;;;;;;5044515;28;20055;-65
2023/09/22 07:11:28;;;;;;;3.03;1.20;;;13.90;99.90;;;;;;5042484;28;20508;-64
2023/09/22 07:13:54;;;;;;;2.13;1.10;;;13.90;99.90;;;;;;5035439;28;20102;-65
2023/09/22 07:16:20;;;;;;;3.53;1.55;;;13.90;99.90;;;;;;5041875;28;20103;-63
2023/09/22 07:18:46;;;;;;;1.23;1.00;;;14.00;99.90;;;;;;5022287;28;20502;-64
2023/09/22 07:21:12;;;;;;;3.20;1.38;;;14.00;99.90;;;;;;5023346;28;20034;-64
2023/09/22 07:23:37;;;;;;;1.23;0.98;;;14.10;99.90;;;;;;5023810;28;20021;-64
2023/09/22 07:26:08;;;;;;;3.40;1.17;;;14.10;99.90;;;;;;5019567;28;20030;-65
2023/09/22 07:28:34;;;;;;;1.17;0.82;;;14.20;99.90;;;;;;5019233;28;20034;-65
2023/09/22 07:31:12;;;;;;;2.03;0.95;;;14.40;99.90;;;;;;5024568;28;20057;-63
2023/09/22 07:33:38;;;;;;;1.60;1.00;;;14.40;99.90;;;;;;4966333;28;20806;-64
2023/09/22 07:36:04;;;;;;;1.98;1.13;;;14.40;99.90;;;;;;4991739;28;20080;-66
2023/09/22 07:38:30;;;;;;;1.02;0.73;;;14.40;99.90;;;;;;4994814;28;20038;-65
2023/09/22 07:40:56;;;;;;;3.22;0.93;;;14.50;99.90;;;;;;4993249;28;20068;-65
2023/09/22 07:43:28;;;;;;;3.35;1.42;;;14.60;99.90;;;;;;4996369;28;20506;-62
2023/09/22 07:45:54;;;;;;;3.30;0.93;;;14.80;99.90;;;;;;4995376;28;20045;-64
2023/09/22 07:48:19;;;;;;;4.22;1.33;;;15.00;99.90;;;;;;4993673;28;20042;-66
2023/09/22 07:50:45;;;;;;;2.88;0.82;;;15.10;99.90;;;;;;4993699;28;20033;-65
2023/09/22 07:53:10;;;;;;;1.88;0.63;;;15.30;99.90;;;;;;4996358;28;20716;-65
2023/09/22 07:55:38;;;;;;;2.97;1.00;;;15.40;99.90;;;;;;4995013;28;20057;-64
2023/09/22 07:58:04;;;;;;;4.20;1.15;;;15.70;99.90;;;;;;4996122;28;20403;-65
2023/09/22 08:00:29;;;;;;;5.13;1.20;;;15.80;99.90;;;;;;4996402;28;20029;-67
2023/09/22 08:02:55;;;;;;;2.80;1.27;;;16.20;99.90;;;;;;4994842;28;20061;-64
2023/09/22 08:05:21;;;;;;;5.03;0.80;;;16.40;99.90;;;;;;4993949;28;20057;-64
2023/09/22 08:07:49;;;;;;;1.33;0.70;;;16.90;99.90;;;;;;4991030;28;20033;-64
2023/09/22 08:10:17;;;;;;;1.65;0.73;;;17.10;99.90;;;;;;4992484;28;20045;-63
2023/09/22 08:12:44;;;;;;;4.32;0.63;;;17.20;99.90;;;;;;4988144;28;20030;-65
2023/09/22 08:15:09;;;;;;;0.80;0.50;;;17.40;99.90;;;;;;4993938;28;20697;-67
2023/09/22 08:17:35;;;;;;;1.27;0.50;;;17.40;99.90;;;;;;4995562;28;20037;-64
2023/09/22 08:20:01;;;;;;;2.33;0.77;;;17.30;99.90;;;;;;4996644;28;20023;-64
2023/09/22 08:22:27;;;;;;;2.88;0.60;;;17.80;99.90;;;;;;4998193;28;20022;-65
2023/09/22 08:24:53;;;;;;;1.02;0.70;;;17.90;99.90;;;;;;4999120;28;20108;-65
2023/09/22 08:27:19;;;;;;;5.05;0.90;;;18.20;99.90;;;;;;4998615;28;20531;-65
2023/09/22 08:29:48;;;;;;;5.13;0.93;;;18.50;99.90;;;;;;4997660;28;20042;-60
2023/09/22 08:32:13;;;;;;;1.25;0.65;;;18.90;99.90;;;;;;4996222;28;20113;-65
2023/09/22 08:34:40;;;;;;;0.90;0.45;;;19.40;99.90;;;;;;4999207;28;20136;-66
2023/09/22 08:37:06;;;;;;;1.27;0.70;;;20.10;99.90;;;;;;4994897;28;20028;-65
2023/09/22 08:39:32;;;;;;;3.67;1.48;;;20.80;99.90;;;;;;4998941;28;20026;-66
2023/09/22 08:42:01;;;;;;;1.02;0.55;;;21.20;99.90;;;;;;4999717;28;20041;-66
2023/09/22 08:44:27;;;;;;;1.60;0.50;;;21.30;99.90;;;;;;4996714;28;20041;-68
2023/09/22 08:46:52;;;;;;;2.30;0.57;;;21.30;99.90;;;;;;4998080;28;20488;-67
2023/09/22 08:49:21;;;;;;;1.10;0.55;;;21.50;99.90;;;;;;4995729;28;20038;-67
2023/09/22 08:51:49;;;;;;;0.40;0.40;;;21.90;99.90;;;;;;4996082;28;20439;-65
2023/09/22 08:54:15;;;;;;;6.20;1.45;;;22.00;99.90;;;;;;4996893;28;20014;-66
2023/09/22 08:56:41;;;;;;;3.85;0.95;;;21.60;99.90;;;;;;4994780;28;20030;-63
2023/09/22 08:59:09;;;;;;;2.17;0.50;;;21.00;99.90;;;;;;4997192;28;20085;-65
2023/09/22 09:01:38;;;;;;;1.75;0.73;;;21.10;99.90;;;;;;4997210;28;20030;-67
2023/09/22 09:04:33;;;;;;;2.00;0.65;;;21.40;99.90;;;;;;4996706;28;20029;-66
2023/09/22 09:06:58;;;;;;;2.80;0.70;;;21.20;99.90;;;;;;4993667;28;20030;-66
2023/09/22 09:09:24;;;;;;;2.35;0.75;;;20.80;99.90;;;;;;4995458;28;20027;-68
2023/09/22 09:12:00;;;;;;;3.53;0.82;;;20.90;99.90;;;;;;4996754;28;20065;-65
2023/09/22 09:14:29;;;;;;;0.73;0.50;;;21.10;99.90;;;;;;4987225;28;20070;-65
2023/09/22 09:16:58;;;;;;;2.22;0.63;;;20.80;99.90;;;;;;5008987;28;20069;-64
2023/09/22 09:19:26;;;;;;;3.00;0.70;;;20.70;99.90;;;;;;4997045;28;20077;-65
2023/09/22 09:22:12;;;;;;;1.45;0.45;;;20.60;99.90;;;;;;4995005;28;20109;-66
2023/09/22 09:24:38;;;;;;;1.17;0.57;;;20.30;99.90;;;;;;4996575;28;20550;-65
2023/09/22 09:27:21;;;;;;;5.95;0.57;;;19.90;99.90;;;;;;4995427;28;20030;-65
2023/09/22 09:29:53;;;;;;;3.07;0.70;;;19.40;99.90;;;;;;4996575;28;20034;-64
2023/09/22 09:32:31;;;;;;;1.67;0.52;;;19.90;99.90;;;;;;4997683;28;20283;-64
2023/09/22 09:34:57;;;;;;;2.28;0.40;;;20.00;99.90;;;;;;4996204;28;20043;-65
2023/09/22 09:37:23;;;;;;;1.77;0.60;;;19.80;99.90;;;;;;4997198;28;20041;-65
2023/09/22 09:39:49;;;;;;;3.47;0.65;;;19.40;99.90;;;;;;4999698;28;20498;-65
2023/09/22 09:42:18;;;;;;;1.92;0.35;;;19.20;99.90;;;;;;4996729;28;20154;-65
2023/09/22 09:44:52;;;;;;;0.85;0.38;;;19.60;99.90;;;;;;4997368;28;20084;-65
2023/09/22 09:47:34;;;;;;;0.85;0.50;;;20.10;99.90;;;;;;4996616;28;20026;-65
2023/09/22 09:50:00;;;;;;;2.28;0.70;;;20.40;99.90;;;;;;4997507;28;21131;-64
2023/09/22 09:52:39;;;;;;;0.90;0.35;;;20.00;99.90;;;;;;4997196;28;20152;-66
2023/09/22 09:55:12;;;;;;;4.22;0.70;;;20.20;99.90;;;;;;4995594;28;20030;-64
2023/09/22 09:57:40;;;;;;;2.72;0.60;;;20.50;99.90;;;;;;4995098;28;20105;-65
2023/09/22 10:00:18;;;;;;;2.00;0.60;;;20.40;99.90;;;;;;4995093;28;20046;-63
2023/09/22 10:02:45;;;;;;;2.97;0.50;;;20.00;99.90;;;;;;4995609;28;20643;-66
2023/09/22 10:05:21;;;;;;;0.55;0.40;;;19.90;99.90;;;;;;4995876;28;21235;-65
2023/09/22 10:07:49;;;;;;;2.65;1.33;;;19.90;99.90;;;;;;4994868;28;20041;-62
2023/09/22 10:10:20;;;;;;;2.92;0.55;;;19.80;99.90;;;;;;4996527;28;20247;-67
2023/09/22 10:12:46;;;;;;;1.30;0.70;;;19.70;99.90;;;;;;4987936;28;20018;-64
2023/09/22 10:15:12;;;;;;;1.35;0.50;;;19.30;99.90;;;;;;4993416;28;20084;-65
2023/09/22 10:17:38;;;;;;;3.85;0.60;;;19.20;99.90;;;;;;4996913;28;20364;-66
2023/09/22 10:20:11;;;;;;;1.45;0.60;;;18.90;99.90;;;;;;4989221;28;20044;-66
2023/09/22 10:22:38;;;;;;;2.08;0.50;;;18.90;99.90;;;;;;5044324;28;20039;-63
2023/09/22 10:25:12;;;;;;;1.35;0.60;;;18.90;99.90;;;;;;5042371;28;20051;-66
2023/09/22 10:27:59;;;;;;;3.80;0.75;;;19.00;99.90;;;;;;5043241;28;20029;-67
2023/09/22 10:30:45;;;;;;;2.88;0.50;;;19.60;99.90;;;;;;5045271;28;20124;-67
2023/09/22 10:33:16;;;;;;;2.20;0.77;;;20.30;99.90;;;;;;5044961;28;20051;-67
2023/09/22 10:35:42;;;;;;;2.65;0.73;;;20.80;99.90;;;;;;5041764;28;20193;-67
2023/09/22 10:38:11;;;;;;;2.97;0.90;;;20.90;99.90;;;;;;5045251;28;20029;-65
2023/09/22 10:40:39;;;;;;;2.28;0.50;;;20.50;99.90;;;;;;5045075;28;20033;-64
2023/09/22 10:43:05;;;;;;;4.95;0.82;;;20.40;99.90;;;;;;5044806;28;20513;-65
2023/09/22 10:45:30;;;;;;;1.50;0.52;;;20.60;99.90;;;;;;5042490;28;20029;-64
2023/09/22 10:48:00;;;;;;;1.55;0.50;;;20.80;98.80;;;;;;5043482;28;20039;-65
2023/09/22 10:50:30;;;;;;;3.15;0.70;;;20.60;98.60;;;;;;5044602;28;20036;-65
2023/09/22 10:53:04;;;;;;;1.20;0.65;;;20.50;98.70;;;;;;5040410;28;20036;-62
2023/09/22 10:55:42;;;;;;;1.88;0.45;;;20.40;98.80;;;;;;5044568;28;20032;-64
2023/09/22 10:58:19;;;;;;;0.60;0.30;;;20.50;98.80;;;;;;5042630;28;20050;-65
2023/09/22 11:01:13;;;;;;;0.68;0.47;;;20.30;97.80;;;;;;5041626;28;20555;-64
2023/09/22 11:03:53;;;;;;;1.65;0.60;;;20.10;98.70;;;;;;5042373;28;20119;-64
2023/09/22 11:06:19;;;;;;;3.05;0.70;;;19.80;99.90;;;;;;5043406;28;20443;-64
2023/09/22 11:08:50;;;;;;;1.88;0.60;;;19.90;98.80;;;;;;5042823;28;20087;-64
2023/09/22 11:11:16;;;;;;;1.33;0.60;;;20.00;98.70;;;;;;5040086;28;20556;-62
2023/09/22 11:13:54;;;;;;;1.67;0.70;;;20.00;98.60;;;;;;5032203;28;20136;-64
2023/09/22 11:16:21;;;;;;;1.60;0.40;;;20.10;98.10;;;;;;5043057;28;20043;-65
2023/09/22 11:18:48;;;;;;;2.45;0.70;;;20.10;99.30;;;;;;5040353;28;20075;-65
2023/09/22 11:21:14;;;;;;;2.20;0.52;;;20.00;99.00;;;;;;5039954;28;20029;-64
2023/09/22 11:23:41;;;;;;;1.42;0.60;;;20.00;96.80;;;;;;5042772;28;20506;-64
2023/09/22 11:26:09;;;;;;;0.77;0.60;;;19.90;98.10;;;;;;5038657;28;20425;-62
2023/09/22 11:28:36;;;;;;;0.98;0.63;;;20.10;97.80;;;;;;5041630;28;20025;-66
2023/09/22 11:31:11;;;;;;;4.30;0.80;;;20.20;97.40;;;;;;5043353;28;20035;-64
2023/09/22 11:33:38;;;;;;;1.38;0.70;;;20.30;98.00;;;;;;5043468;28;20028;-64
2023/09/22 11:36:03;;;;;;;1.02;0.60;;;20.00;95.20;;;;;;5041945;28;20049;-64
2023/09/22 11:38:31;;;;;;;3.72;0.68;;;19.70;97.50;;;;;;5042174;28;20045;-65
2023/09/22 11:41:02;;;;;;;0.43;0.40;;;19.80;97.60;;;;;;5043153;28;20066;-66
2023/09/22 11:43:28;;;;;;;1.77;0.57;;;19.60;96.40;;;;;;5040715;28;20092;-65
2023/09/22 11:46:14;;;;;;;2.10;1.00;;;19.60;95.70;;;;;;5044132;28;20570;-64
2023/09/22 11:49:05;;;;;;;1.67;0.43;;;19.90;96.50;;;;;;5044703;28;20155;-64
2023/09/22 11:51:40;;;;;;;1.85;0.80;;;20.20;96.20;;;;;;5037165;28;20383;-64
2023/09/22 11:54:07;;;;;;;4.15;0.75;;;20.30;96.10;;;;;;5045352;28;20413;-62
2023/09/22 11:56:33;;;;;;;1.83;0.60;;;20.30;96.10;;;;;;5047882;28;20036;-64
2023/09/22 11:59:08;;;;;;;7.43;0.57;;;20.60;97.80;;;;;;5047402;28;20104;-64
2023/09/22 12:01:34;;;;;;;1.23;0.60;;;20.90;96.50;;;;;;5047060;28;20029;-67
2023/09/22 12:03:59;;;;;;;2.75;0.60;;;21.00;94.90;;;;;;5046826;28;20036;-64
2023/09/22 12:06:25;;;;;;;1.35;0.77;;;21.20;96.40;;;;;;5037207;28;20047;-64
2023/09/22 12:08:54;;;;;;;4.25;0.85;;;21.30;94.00;;;;;;5046265;28;20049;-65
2023/09/22 12:11:21;;;;;;;2.08;0.50;;;21.30;95.30;;;;;;5048798;28;20695;-65
2023/09/22 12:13:47;;;;;;;0.77;0.63;;;20.80;95.10;;;;;;5039279;28;20044;-63
2023/09/22 12:16:13;;;;;;;2.90;0.63;;;20.80;94.50;;;;;;5044104;28;20418;-64
2023/09/22 12:18:39;;;;;;;1.70;0.60;;;20.80;95.10;;;;;;5046686;28;20386;-66
2023/09/22 12:21:04;;;;;;;1.98;0.60;;;20.90;94.30;;;;;;5046228;28;20029;-64
2023/09/22 12:23:32;;;;;;;1.55;0.60;;;20.70;94.30;;;;;;5047684;28;20539;-65
2023/09/22 12:25:57;;;;;;;2.45;1.25;;;20.60;95.50;;;;;;5045998;28;20028;-66
2023/09/22 12:28:23;;;;;;;1.52;0.47;;;21.00;96.50;;;;;;5048757;28;20041;-66
2023/09/22 12:30:50;;;;;;;1.00;0.60;;;21.20;95.80;;;;;;5047276;28;20040;-66
2023/09/22 12:33:16;;;;;;;2.10;0.80;;;21.40;94.40;;;;;;5043695;28;20037;-65
2023/09/22 12:35:42;;;;;;;0.77;0.50;;;21.40;93.30;;;;;;5046796;28;20082;-65
2023/09/22 12:38:07;;;;;;;1.05;0.50;;;20.80;93.20;;;;;;5046722;28;20040;-65
2023/09/22 12:40:33;;;;;;;1.42;1.00;;;20.30;93.20;;;;;;5047011;28;20037;-65
2023/09/22 12:42:59;;;;;;;4.75;0.55;;;20.20;94.00;;;;;;5047745;28;20454;-66
2023/09/22 12:45:25;;;;;;;4.93;0.60;;;20.50;95.90;;;;;;5045586;28;20116;-65
2023/09/22 12:47:51;;;;;;;2.75;0.80;;;20.40;93.10;;;;;;5044461;28;20070;-64